Time;durP1;ratioP1;P1;durP2;ratioP2;P2;SDS_P1;SDS_P2;PMS_P1;PMS_P2;Temp;Humidity;BMP_temperature;BMP_pressure;BME280_temperature;BME280_humidity;BME280_pressure;Samples;Min_cycle;Max_cycle;Signal;HPM_P1;HPM_P2
2021/12/28 00:01:21;;;;;;;114.85;40.97;;;;;;;;;;5043594;28;20367;-69
2021/12/28 00:03:47;;;;;;;111.70;41.58;;;;;;;;;;5042454;28;20060;-68
2021/12/28 00:06:15;;;;;;;93.78;40.30;;;;;;;;;;5047591;28;20107;-69
2021/12/28 00:08:41;;;;;;;87.28;42.33;;;;;;;;;;5041430;28;20036;-69
2021/12/28 00:11:07;;;;;;;95.00;40.15;;;;;;;;;;5039442;28;20036;-69
2021/12/28 00:13:33;;;;;;;89.72;39.63;;;;;;;;;;5043447;28;20550;-69
2021/12/28 00:17:58;;;;;;;90.38;39.08;;;;;;;;;;5040689;28;20120;-69
2021/12/28 00:18:46;;;;;;;98.80;40.58;;;;;;;;;;5036468;28;20032;-69
2021/12/28 00:21:12;;;;;;;84.18;39.63;;;;;;;;;;5043855;28;20043;-70
2021/12/28 00:23:40;;;;;;;92.97;39.45;;;;;;;;;;5043289;28;20029;-69
2021/12/28 00:26:13;;;;;;;104.95;41.50;;;;;;;;;;5045437;28;20029;-69
2021/12/28 00:28:39;;;;;;;96.57;39.53;;;;;;;;;;5040406;28;20045;-69
2021/12/28 00:31:06;;;;;;;96.35;39.63;;;;;;;;;;5044828;28;20116;-69
2021/12/28 00:33:32;;;;;;;99.00;40.15;;;;;;;;;;5045786;28;20036;-69
2021/12/28 00:35:59;;;;;;;101.88;40.58;;;;;;;;;;5039988;28;20025;-69
2021/12/28 00:38:26;;;;;;;111.88;41.63;;;;;;;;;;5037998;28;20025;-69
2021/12/28 00:40:54;;;;;;;110.80;41.65;;;;;;;;;;5046319;28;20510;-69
2021/12/28 00:43:20;;;;;;;89.00;38.10;;;;;;;;;;5042596;28;20082;-69
2021/12/28 00:45:46;;;;;;;100.50;39.53;;;;;;;;;;5042464;28;20017;-71
2021/12/28 00:48:13;;;;;;;109.88;42.40;;;;;;;;;;5037843;28;20071;-70
2021/12/28 00:50:39;;;;;;;105.55;41.42;;;;;;;;;;5042713;28;20032;-70
2021/12/28 00:53:06;;;;;;;114.28;43.08;;;;;;;;;;5043466;28;20036;-70
2021/12/28 00:55:32;;;;;;;117.70;41.58;;;;;;;;;;5041211;28;20406;-70
2021/12/28 00:57:58;;;;;;;115.03;42.92;;;;;;;;;;5042159;28;20025;-70
2021/12/28 01:00:29;;;;;;;112.05;42.17;;;;;;;;;;5040889;28;20497;-70
2021/12/28 01:02:57;;;;;;;116.00;42.22;;;;;;;;;;5039593;28;20037;-70
2021/12/28 01:05:24;;;;;;;115.03;43.63;;;;;;;;;;5042854;28;20048;-70
2021/12/28 01:07:50;;;;;;;112.10;43.58;;;;;;;;;;5041139;28;20025;-70
2021/12/28 01:10:18;;;;;;;116.47;43.33;;;;;;;;;;5042468;28;20079;-70
2021/12/28 01:12:45;;;;;;;119.78;42.47;;;;;;;;;;5040738;28;20119;-70
2021/12/28 01:15:11;;;;;;;118.45;42.58;;;;;;;;;;5041867;28;20033;-70
2021/12/28 01:17:37;;;;;;;108.28;42.40;;;;;;;;;;5042738;28;20124;-70
2021/12/28 01:20:05;;;;;;;111.15;42.55;;;;;;;;;;5041326;28;20021;-70
2021/12/28 01:22:31;;;;;;;100.22;41.58;;;;;;;;;;5041874;28;20634;-70
2021/12/28 01:24:57;;;;;;;101.22;40.63;;;;;;;;;;5041499;28;20068;-70
2021/12/28 01:27:23;;;;;;;108.18;38.78;;;;;;;;;;5044424;28;20116;-70
2021/12/28 01:29:50;;;;;;;107.50;38.78;;;;;;;;;;5040358;28;20056;-69
2021/12/28 01:32:16;;;;;;;93.18;35.45;;;;;;;;;;5040407;28;20471;-70
2021/12/28 01:34:43;;;;;;;105.50;36.53;;;;;;;;;;5042826;28;20064;-70
2021/12/28 01:37:09;;;;;;;95.95;34.05;;;;;;;;;;5041560;28;20071;-69
2021/12/28 01:39:35;;;;;;;93.10;32.60;;;;;;;;;;5037489;28;20087;-70
2021/12/28 01:42:05;;;;;;;99.43;33.30;;;;;;;;;;5041628;28;20471;-71
2021/12/28 01:44:32;;;;;;;89.80;31.80;;;;;;;;;;5040647;28;20124;-70
2021/12/28 01:46:58;;;;;;;98.45;30.00;;;;;;;;;;5042326;28;20037;-70
2021/12/28 01:49:24;;;;;;;80.00;29.67;;;;;;;;;;5042978;28;20086;-71
2021/12/28 01:51:50;;;;;;;80.32;29.17;;;;;;;;;;5040799;28;20032;-71
2021/12/28 01:54:16;;;;;;;84.53;29.17;;;;;;;;;;5036666;28;20098;-70
2021/12/28 01:56:44;;;;;;;77.53;27.90;;;;;;;;;;5041857;28;20043;-69
2021/12/28 01:59:11;;;;;;;78.05;26.42;;;;;;;;;;5038541;28;20079;-70
2021/12/28 02:01:37;;;;;;;75.03;26.98;;;;;;;;;;5041606;28;20033;-70
2021/12/28 02:04:12;;;;;;;88.95;27.25;;;;;;;;;;5056438;28;20087;-70
2021/12/28 02:06:38;;;;;;;77.70;25.67;;;;;;;;;;5036455;28;20037;-70
2021/12/28 02:09:04;;;;;;;72.15;24.88;;;;;;;;;;5056049;28;20102;-69
2021/12/28 02:11:30;;;;;;;76.18;23.25;;;;;;;;;;5055472;28;20453;-70
2021/12/28 02:13:56;;;;;;;77.07;24.17;;;;;;;;;;5037467;28;20106;-70
2021/12/28 02:16:22;;;;;;;67.45;23.58;;;;;;;;;;5038518;28;20478;-70
2021/12/28 02:18:48;;;;;;;82.88;25.25;;;;;;;;;;5043023;28;20504;-70
2021/12/28 02:21:14;;;;;;;86.20;24.45;;;;;;;;;;5033619;28;20061;-70
2021/12/28 02:23:40;;;;;;;77.55;21.70;;;;;;;;;;5039978;28;20029;-69
2021/12/28 02:26:06;;;;;;;81.50;23.77;;;;;;;;;;5038972;28;20450;-70
2021/12/28 02:28:32;;;;;;;63.88;21.95;;;;;;;;;;5038119;28;20106;-70
2021/12/28 02:30:59;;;;;;;79.55;22.42;;;;;;;;;;5039440;28;20201;-70
2021/12/28 02:33:27;;;;;;;66.22;23.40;;;;;;;;;;5041500;28;20083;-70
2021/12/28 02:35:54;;;;;;;84.72;22.80;;;;;;;;;;5040624;28;20047;-70
2021/12/28 02:38:20;;;;;;;79.38;23.40;;;;;;;;;;5043671;28;20017;-70
2021/12/28 02:40:47;;;;;;;90.57;23.33;;;;;;;;;;5053285;28;20031;-69
2021/12/28 02:43:14;;;;;;;79.68;22.45;;;;;;;;;;5041954;28;20120;-70
2021/12/28 02:45:48;;;;;;;82.50;21.58;;;;;;;;;;5031822;28;21587;-69
2021/12/28 02:48:15;;;;;;;71.93;21.70;;;;;;;;;;5036959;28;20415;-70
2021/12/28 02:50:43;;;;;;;86.45;21.77;;;;;;;;;;5040566;28;20088;-70
2021/12/28 02:53:10;;;;;;;75.53;21.45;;;;;;;;;;5040336;28;20100;-69
2021/12/28 02:55:37;;;;;;;77.15;22.08;;;;;;;;;;5041856;28;20057;-70
2021/12/28 02:58:08;;;;;;;79.15;21.17;;;;;;;;;;5039622;28;20086;-70
2021/12/28 03:00:34;;;;;;;;;;;;;;;;;;5038141;28;20406;-67
2021/12/28 03:03:04;;;;;;;85.53;21.30;;;;;;;;;;5035192;28;19909;-69
2021/12/28 03:05:30;;;;;;;71.28;18.23;;;;;;;;;;5035405;28;20025;-70
2021/12/28 03:07:56;;;;;;;70.32;19.02;;;;;;;;;;5041141;28;20061;-70
2021/12/28 03:10:22;;;;;;;78.20;18.27;;;;;;;;;;5034750;28;20072;-70
2021/12/28 03:12:48;;;;;;;81.28;18.10;;;;;;;;;;5040430;28;20035;-70
2021/12/28 03:15:14;;;;;;;87.03;21.10;;;;;;;;;;5055811;28;20044;-70
2021/12/28 03:17:41;;;;;;;68.07;18.30;;;;;;;;;;5039157;28;20045;-70
2021/12/28 03:20:07;;;;;;;72.63;18.63;;;;;;;;;;5038870;28;20516;-70
2021/12/28 03:22:36;;;;;;;72.57;17.98;;;;;;;;;;5036408;28;20021;-69
2021/12/28 03:25:02;;;;;;;73.47;18.65;;;;;;;;;;5035789;28;20056;-70
2021/12/28 03:27:28;;;;;;;66.93;18.38;;;;;;;;;;5033742;28;20464;-70
2021/12/28 03:29:54;;;;;;;68.18;18.00;;;;;;;;;;5054036;28;20033;-70
2021/12/28 03:32:20;;;;;;;67.07;19.13;;;;;;;;;;5036613;28;20033;-70
2021/12/28 03:34:46;;;;;;;79.25;19.13;;;;;;;;;;5041958;28;20103;-70
2021/12/28 03:37:12;;;;;;;68.07;16.33;;;;;;;;;;5053665;28;20064;-70
2021/12/28 03:39:38;;;;;;;71.90;16.02;;;;;;;;;;5039258;28;20440;-70
2021/12/28 03:42:05;;;;;;;69.70;18.55;;;;;;;;;;5042906;28;20128;-70
2021/12/28 03:44:31;;;;;;;68.05;16.73;;;;;;;;;;5043673;28;20056;-70
2021/12/28 03:46:57;;;;;;;63.45;15.93;;;;;;;;;;5040162;28;20067;-69
2021/12/28 03:49:23;;;;;;;74.90;17.83;;;;;;;;;;5040083;28;20032;-70
2021/12/28 03:51:50;;;;;;;59.25;15.02;;;;;;;;;;5036160;28;20044;-69
2021/12/28 03:54:16;;;;;;;73.97;18.13;;;;;;;;;;5038168;28;20025;-70
2021/12/28 03:56:42;;;;;;;70.85;14.85;;;;;;;;;;5040496;28;20029;-70
2021/12/28 03:59:08;;;;;;;66.82;16.15;;;;;;;;;;5039273;28;20032;-70
2021/12/28 04:01:34;;;;;;;67.25;16.08;;;;;;;;;;5036962;28;20466;-70
2021/12/28 04:04:00;;;;;;;74.70;15.60;;;;;;;;;;5037015;28;20042;-70
2021/12/28 04:06:27;;;;;;;63.80;15.20;;;;;;;;;;5040734;28;20116;-69
2021/12/28 04:08:56;;;;;;;73.00;16.25;;;;;;;;;;5038288;28;20017;-69
2021/12/28 04:13:49;;;;;;;75.90;17.25;;;;;;;;;;5056061;28;20145;-70
2021/12/28 04:16:15;;;;;;;54.55;15.38;;;;;;;;;;5043160;28;20039;-69
2021/12/28 04:18:41;;;;;;;73.45;15.00;;;;;;;;;;5041649;28;20450;-70
2021/12/28 04:21:08;;;;;;;82.68;16.00;;;;;;;;;;5042612;28;20694;-69
2021/12/28 04:23:34;;;;;;;70.47;16.73;;;;;;;;;;5040011;28;20021;-70
2021/12/28 04:26:00;;;;;;;65.40;14.52;;;;;;;;;;5041254;28;20028;-70
2021/12/28 04:28:27;;;;;;;74.15;14.50;;;;;;;;;;5042356;28;20112;-70
2021/12/28 04:30:53;;;;;;;76.05;16.23;;;;;;;;;;5034277;28;20041;-70
2021/12/28 04:33:19;;;;;;;62.53;13.70;;;;;;;;;;5044464;28;20309;-69
2021/12/28 04:35:45;;;;;;;76.10;14.07;;;;;;;;;;5061197;28;20040;-70
2021/12/28 04:38:11;;;;;;;66.80;13.57;;;;;;;;;;5043243;28;20166;-71
2021/12/28 04:40:38;;;;;;;66.80;14.50;;;;;;;;;;5041758;28;20029;-70
2021/12/28 04:43:04;;;;;;;59.42;13.55;;;;;;;;;;5050788;28;20017;-70
2021/12/28 04:45:30;;;;;;;59.67;13.35;;;;;;;;;;5046124;28;20399;-70
2021/12/28 04:47:56;;;;;;;64.75;15.25;;;;;;;;;;5044927;28;20153;-69
2021/12/28 04:50:23;;;;;;;63.03;13.50;;;;;;;;;;5036332;28;20040;-69
2021/12/28 04:52:49;;;;;;;60.88;13.10;;;;;;;;;;5045628;28;20037;-70
2021/12/28 04:55:16;;;;;;;71.53;14.48;;;;;;;;;;5037968;28;20113;-69
2021/12/28 04:57:43;;;;;;;56.47;12.93;;;;;;;;;;5043276;28;20041;-69
2021/12/28 05:00:12;;;;;;;71.95;12.68;;;;;;;;;;5043004;28;20116;-69
2021/12/28 05:02:38;;;;;;;66.15;13.95;;;;;;;;;;5037710;28;20037;-70
2021/12/28 05:05:04;;;;;;;51.00;12.68;;;;;;;;;;5042687;28;20033;-69
2021/12/28 05:07:30;;;;;;;63.67;13.88;;;;;;;;;;5045091;28;20044;-69
2021/12/28 05:09:58;;;;;;;73.20;13.52;;;;;;;;;;5043648;28;20033;-69
2021/12/28 05:12:25;;;;;;;55.42;12.02;;;;;;;;;;5036663;28;20035;-70
2021/12/28 05:14:51;;;;;;;65.57;12.10;;;;;;;;;;5043895;28;20025;-70
2021/12/28 05:17:17;;;;;;;61.90;11.65;;;;;;;;;;5042340;28;20025;-69
2021/12/28 05:19:43;;;;;;;58.58;11.15;;;;;;;;;;5042164;28;20029;-70
2021/12/28 05:22:12;;;;;;;53.58;12.13;;;;;;;;;;5043566;28;20033;-70
2021/12/28 05:24:38;;;;;;;51.38;11.48;;;;;;;;;;5042771;28;20039;-70
2021/12/28 05:27:04;;;;;;;50.78;12.10;;;;;;;;;;5043892;28;20029;-70
2021/12/28 05:29:30;;;;;;;52.67;12.02;;;;;;;;;;5039187;28;20033;-70
2021/12/28 05:31:56;;;;;;;55.05;12.82;;;;;;;;;;5039106;28;20085;-69
2021/12/28 05:34:22;;;;;;;61.70;11.77;;;;;;;;;;5053227;28;20051;-69
2021/12/28 05:36:49;;;;;;;56.45;11.32;;;;;;;;;;5040720;28;20123;-70
2021/12/28 05:39:15;;;;;;;56.80;11.90;;;;;;;;;;5040672;28;20450;-70
2021/12/28 05:41:41;;;;;;;59.72;12.00;;;;;;;;;;5041108;28;20039;-70
2021/12/28 05:44:07;;;;;;;57.38;11.32;;;;;;;;;;5037272;28;20037;-70
2021/12/28 05:46:33;;;;;;;53.03;12.85;;;;;;;;;;5039291;28;20036;-69
2021/12/28 05:48:59;;;;;;;60.30;12.25;;;;;;;;;;5040744;28;20044;-70
2021/12/28 05:51:26;;;;;;;63.15;12.07;;;;;;;;;;5039324;28;20094;-70
2021/12/28 05:53:52;;;;;;;60.35;12.18;;;;;;;;;;5037468;28;20029;-70
2021/12/28 05:56:18;;;;;;;54.05;12.73;;;;;;;;;;5042546;28;20041;-70
2021/12/28 05:58:44;;;;;;;59.53;12.88;;;;;;;;;;5041727;28;20021;-70
2021/12/28 06:01:10;;;;;;;64.75;12.63;;;;;;;;;;5039127;28;20028;-69
2021/12/28 06:03:36;;;;;;;58.35;12.77;;;;;;;;;;5041578;28;20079;-70
2021/12/28 06:06:02;;;;;;;61.90;13.38;;;;;;;;;;5038667;28;20030;-70
2021/12/28 06:08:28;;;;;;;53.85;13.38;;;;;;;;;;5035523;28;20044;-69
2021/12/28 06:10:54;;;;;;;54.50;12.57;;;;;;;;;;5037499;28;20124;-70
2021/12/28 06:13:20;;;;;;;52.60;12.88;;;;;;;;;;5040355;28;20041;-68
2021/12/28 06:15:47;;;;;;;64.38;12.98;;;;;;;;;;5041787;28;20025;-68
2021/12/28 06:18:13;;;;;;;47.88;12.05;;;;;;;;;;5039938;28;20021;-68
2021/12/28 06:20:39;;;;;;;55.03;12.38;;;;;;;;;;5040579;28;20028;-68
2021/12/28 06:23:05;;;;;;;52.90;11.88;;;;;;;;;;5040547;28;20079;-68
2021/12/28 06:25:32;;;;;;;46.90;11.95;;;;;;;;;;5040733;28;20029;-71
2021/12/28 06:27:58;;;;;;;49.38;12.57;;;;;;;;;;5039528;28;20111;-70
2021/12/28 06:30:24;;;;;;;55.47;12.50;;;;;;;;;;5040165;28;20045;-69
2021/12/28 06:32:49;;;;;;;55.25;11.93;;;;;;;;;;5027355;28;20029;-68
2021/12/28 06:35:15;;;;;;;51.85;11.20;;;;;;;;;;5038374;28;20067;-69
2021/12/28 06:37:43;;;;;;;48.83;11.82;;;;;;;;;;5039769;28;20042;-70
2021/12/28 06:40:11;;;;;;;49.90;10.55;;;;;;;;;;5041823;28;20079;-70
2021/12/28 06:42:37;;;;;;;65.45;12.70;;;;;;;;;;5036902;28;20476;-70
2021/12/28 06:45:04;;;;;;;53.50;10.73;;;;;;;;;;5041360;28;20047;-70
2021/12/28 06:47:30;;;;;;;51.97;13.07;;;;;;;;;;5038918;28;20128;-70
2021/12/28 06:49:56;;;;;;;52.55;12.80;;;;;;;;;;5038827;28;20111;-69
2021/12/28 06:52:22;;;;;;;51.75;11.73;;;;;;;;;;5041614;28;20549;-70
2021/12/28 06:54:48;;;;;;;54.30;11.73;;;;;;;;;;5041855;28;20074;-69
2021/12/28 06:57:14;;;;;;;54.75;13.63;;;;;;;;;;5042028;28;20131;-69
2021/12/28 06:59:45;;;;;;;49.70;12.10;;;;;;;;;;5039811;28;20128;-70
2021/12/28 07:02:12;;;;;;;56.72;13.38;;;;;;;;;;5041056;28;20040;-69
2021/12/28 07:04:39;;;;;;;51.33;11.88;;;;;;;;;;5041224;28;20079;-69
2021/12/28 07:07:05;;;;;;;53.97;12.43;;;;;;;;;;5041347;28;20040;-69
2021/12/28 07:09:32;;;;;;;47.17;11.75;;;;;;;;;;5036794;28;20422;-69
2021/12/28 07:11:58;;;;;;;49.70;12.10;;;;;;;;;;5038081;28;20061;-69
2021/12/28 07:14:24;;;;;;;48.40;12.25;;;;;;;;;;5039571;28;20199;-69
2021/12/28 07:16:50;;;;;;;52.70;12.13;;;;;;;;;;5038409;28;20505;-69
2021/12/28 07:19:16;;;;;;;61.00;12.43;;;;;;;;;;5043097;28;20169;-69
2021/12/28 07:21:43;;;;;;;51.15;12.40;;;;;;;;;;5036671;28;20139;-69
2021/12/28 07:24:10;;;;;;;46.17;11.90;;;;;;;;;;5038185;28;20391;-68
2021/12/28 07:26:36;;;;;;;39.42;13.10;;;;;;;;;;5043215;28;20021;-69
2021/12/28 07:29:03;;;;;;;45.70;15.05;;;;;;;;;;5039171;28;20048;-69
2021/12/28 07:31:29;;;;;;;50.83;12.25;;;;;;;;;;5037066;28;20039;-68
2021/12/28 07:33:55;;;;;;;41.60;11.98;;;;;;;;;;5039640;28;20040;-68
2021/12/28 07:36:21;;;;;;;40.17;12.50;;;;;;;;;;5036292;28;20044;-68
2021/12/28 07:38:47;;;;;;;40.85;11.88;;;;;;;;;;5034824;28;20514;-68
2021/12/28 07:41:14;;;;;;;44.28;11.48;;;;;;;;;;5041421;28;20040;-68
2021/12/28 07:43:40;;;;;;;43.17;11.77;;;;;;;;;;5041723;28;20029;-68
2021/12/28 07:46:06;;;;;;;35.78;10.50;;;;;;;;;;5037321;28;20032;-68
2021/12/28 07:48:32;;;;;;;43.30;12.23;;;;;;;;;;5043814;28;20115;-68
2021/12/28 07:50:58;;;;;;;42.20;11.90;;;;;;;;;;5040772;28;20039;-69
2021/12/28 07:53:25;;;;;;;45.00;12.88;;;;;;;;;;5046008;28;20163;-68
2021/12/28 07:55:51;;;;;;;34.58;13.02;;;;;;;;;;5042380;28;20029;-68
2021/12/28 07:58:17;;;;;;;35.55;12.30;;;;;;;;;;5039944;28;20060;-69
2021/12/28 08:00:43;;;;;;;38.78;11.90;;;;;;;;;;5056384;28;20029;-70
2021/12/28 08:03:09;;;;;;;39.80;12.50;;;;;;;;;;5047365;28;20070;-70
2021/12/28 08:05:36;;;;;;;39.22;12.65;;;;;;;;;;5039786;28;20055;-69
2021/12/28 08:08:03;;;;;;;36.42;13.70;;;;;;;;;;5031876;28;20028;-70
2021/12/28 08:10:30;;;;;;;41.30;12.85;;;;;;;;;;5041813;28;20159;-69
2021/12/28 08:12:56;;;;;;;35.35;13.32;;;;;;;;;;5045558;28;20025;-70
2021/12/28 08:15:23;;;;;;;30.85;13.35;;;;;;;;;;5043537;28;20535;-69
2021/12/28 08:17:49;;;;;;;31.20;13.10;;;;;;;;;;5038707;28;20044;-70
2021/12/28 08:20:16;;;;;;;32.22;13.65;;;;;;;;;;5041529;28;20052;-70
2021/12/28 08:22:43;;;;;;;40.58;14.38;;;;;;;;;;5043974;28;20111;-69
2021/12/28 08:25:10;;;;;;;42.10;14.38;;;;;;;;;;5039656;28;20025;-70
2021/12/28 08:27:37;;;;;;;39.05;16.15;;;;;;;;;;5041661;28;20047;-70
2021/12/28 08:30:04;;;;;;;40.42;16.48;;;;;;;;;;5041374;28;20054;-70
2021/12/28 08:32:30;;;;;;;36.55;15.25;;;;;;;;;;5040877;28;20475;-70
2021/12/28 08:34:56;;;;;;;33.90;14.98;;;;;;;;;;5040410;28;20076;-70
2021/12/28 08:37:22;;;;;;;35.47;14.32;;;;;;;;;;5041767;28;20044;-69
2021/12/28 08:39:48;;;;;;;36.47;15.90;;;;;;;;;;5043024;28;20032;-70
2021/12/28 08:42:14;;;;;;;30.20;14.60;;;;;;;;;;5038096;28;20025;-69
2021/12/28 08:44:40;;;;;;;29.65;14.98;;;;;;;;;;5043804;28;20040;-70
2021/12/28 08:47:08;;;;;;;32.50;15.10;;;;;;;;;;5054943;28;20033;-70
2021/12/28 08:49:34;;;;;;;37.08;15.50;;;;;;;;;;5038887;28;20037;-70
2021/12/28 08:52:00;;;;;;;32.90;14.27;;;;;;;;;;5044646;28;20069;-69
2021/12/28 08:54:26;;;;;;;28.40;14.15;;;;;;;;;;5043692;28;20037;-71
2021/12/28 08:56:52;;;;;;;31.48;15.15;;;;;;;;;;5057087;28;20033;-70
2021/12/28 08:59:19;;;;;;;24.17;12.98;;;;;;;;;;5045607;28;20117;-69
2021/12/28 09:01:47;;;;;;;28.35;14.43;;;;;;;;;;5045075;28;20033;-70
2021/12/28 09:04:13;;;;;;;35.17;14.23;;;;;;;;;;5039118;28;20132;-70
2021/12/28 09:06:39;;;;;;;29.27;15.40;;;;;;;;;;5039914;28;20157;-70
2021/12/28 09:09:06;;;;;;;29.77;15.00;;;;;;;;;;5033603;28;20745;-69
2021/12/28 09:11:32;;;;;;;29.60;14.65;;;;;;;;;;5036695;28;20095;-69
2021/12/28 09:13:58;;;;;;;28.52;16.38;;;;;;;;;;5040833;28;20043;-70
2021/12/28 09:16:24;;;;;;;35.60;16.23;;;;;;;;;;5038408;28;20041;-70
2021/12/28 09:18:50;;;;;;;30.08;15.95;;;;;;;;;;5039293;28;20116;-69
2021/12/28 09:21:16;;;;;;;31.77;15.90;;;;;;;;;;5042320;28;20466;-70
2021/12/28 09:23:42;;;;;;;31.08;14.95;;;;;;;;;;5049482;28;20382;-70
2021/12/28 09:26:08;;;;;;;32.03;16.98;;;;;;;;;;5038917;28;20021;-69
2021/12/28 09:28:34;;;;;;;32.95;16.63;;;;;;;;;;5058696;28;20490;-69
2021/12/28 09:31:01;;;;;;;30.45;15.50;;;;;;;;;;5036470;28;20021;-68
2021/12/28 09:33:27;;;;;;;28.83;16.17;;;;;;;;;;5033759;28;20071;-69
2021/12/28 09:35:53;;;;;;;34.75;16.77;;;;;;;;;;5040489;28;20130;-70
2021/12/28 09:38:20;;;;;;;30.77;16.83;;;;;;;;;;5035485;28;20054;-71
2021/12/28 09:40:47;;;;;;;29.63;15.70;;;;;;;;;;5035270;28;20470;-69
2021/12/28 09:43:13;;;;;;;30.88;16.20;;;;;;;;;;5037037;28;20025;-70
2021/12/28 09:45:40;;;;;;;35.83;17.77;;;;;;;;;;5039742;28;20017;-71
2021/12/28 09:48:07;;;;;;;34.90;18.02;;;;;;;;;;5038375;28;20025;-70
2021/12/28 09:50:34;;;;;;;40.67;20.08;;;;;;;;;;5031644;28;20033;-71
2021/12/28 09:53:00;;;;;;;39.10;19.60;;;;;;;;;;5040092;28;20500;-70
2021/12/28 09:55:27;;;;;;;28.15;17.63;;;;;;;;;;5033276;28;20178;-70
2021/12/28 09:57:53;;;;;;;33.00;19.77;;;;;;;;;;5030752;28;20021;-70
2021/12/28 10:00:21;;;;;;;35.63;19.83;;;;;;;;;;5034762;28;20094;-69
2021/12/28 10:02:47;;;;;;;35.15;20.13;;;;;;;;;;5036702;28;20043;-69
2021/12/28 10:05:14;;;;;;;34.13;19.27;;;;;;;;;;5037136;28;20049;-70
2021/12/28 10:07:45;;;;;;;36.75;20.23;;;;;;;;;;5031248;28;20056;-70
2021/12/28 10:10:11;;;;;;;33.10;19.63;;;;;;;;;;5034367;28;20863;-70
2021/12/28 10:12:42;;;;;;;33.33;19.50;;;;;;;;;;5028276;28;20033;-69
2021/12/28 10:15:09;;;;;;;32.92;19.17;;;;;;;;;;5038162;28;20037;-70
2021/12/28 10:17:36;;;;;;;30.40;18.70;;;;;;;;;;5042666;28;20098;-70
2021/12/28 10:20:05;;;;;;;30.23;18.60;;;;;;;;;;5036034;28;20048;-71
2021/12/28 10:22:33;;;;;;;29.55;18.92;;;;;;;;;;5031713;28;20037;-72
2021/12/28 10:24:59;;;;;;;33.72;19.27;;;;;;;;;;5040636;28;20836;-70
2021/12/28 10:27:26;;;;;;;34.13;19.17;;;;;;;;;;5036607;28;20036;-70
2021/12/28 10:29:53;;;;;;;30.17;18.42;;;;;;;;;;5040948;28;20486;-70
2021/12/28 10:32:28;;;;;;;28.50;18.00;;;;;;;;;;5033897;28;20073;-70
2021/12/28 10:34:54;;;;;;;25.63;16.38;;;;;;;;;;5038788;28;20033;-70
2021/12/28 10:37:40;;;;;;;29.17;18.13;;;;;;;;;;5041823;28;20021;-69
2021/12/28 10:40:08;;;;;;;27.60;16.17;;;;;;;;;;5037783;28;20434;-69
2021/12/28 10:42:40;;;;;;;29.23;16.58;;;;;;;;;;5043960;28;20462;-69
2021/12/28 10:45:08;;;;;;;26.15;15.68;;;;;;;;;;5040594;28;20060;-69
2021/12/28 10:47:34;;;;;;;24.85;17.33;;;;;;;;;;5038763;28;20728;-69
2021/12/28 10:50:08;;;;;;;22.88;15.93;;;;;;;;;;5055626;28;20025;-69
2021/12/28 10:52:38;;;;;;;25.25;15.43;;;;;;;;;;5039862;28;20490;-69
2021/12/28 10:55:23;;;;;;;21.38;15.13;;;;;;;;;;5036207;28;20173;-70
2021/12/28 10:57:50;;;;;;;22.25;14.07;;;;;;;;;;5039902;28;20041;-69
2021/12/28 11:00:28;;;;;;;23.58;14.25;;;;;;;;;;5040488;28;20025;-70
2021/12/28 11:03:16;;;;;;;20.33;14.38;;;;;;;;;;5042169;28;20021;-69
2021/12/28 11:05:44;;;;;;;23.20;14.48;;;;;;;;;;5038092;28;20091;-69
2021/12/28 11:08:11;;;;;;;19.60;13.45;;;;;;;;;;5038248;28;20025;-70
2021/12/28 11:10:41;;;;;;;17.58;12.50;;;;;;;;;;5034613;28;20486;-69
2021/12/28 11:13:07;;;;;;;15.20;11.30;;;;;;;;;;5043176;28;20513;-69
2021/12/28 11:15:37;;;;;;;14.18;10.90;;;;;;;;;;5040590;28;20032;-70
2021/12/28 11:18:22;;;;;;;14.65;10.65;;;;;;;;;;5037907;28;20032;-69
2021/12/28 11:20:49;;;;;;;13.80;9.63;;;;;;;;;;5050766;28;20577;-69
2021/12/28 11:23:18;;;;;;;14.02;9.88;;;;;;;;;;5046036;28;20025;-70
2021/12/28 11:25:44;;;;;;;13.70;9.18;;;;;;;;;;5039377;28;20079;-69
2021/12/28 11:28:14;;;;;;;10.73;8.38;;;;;;;;;;5042860;28;20033;-70
2021/12/28 11:30:56;;;;;;;10.70;6.50;;;;;;;;;;5044218;28;20036;-69
2021/12/28 11:33:22;;;;;;;11.65;6.57;;;;;;;;;;5039817;28;20029;-70
2021/12/28 11:35:48;;;;;;;11.55;5.40;;;;;;;;;;5046070;28;20351;-69
2021/12/28 11:38:15;;;;;;;11.45;4.80;;;;;;;;;;5046388;28;20206;-70
2021/12/28 11:40:41;;;;;;;10.13;5.43;;;;;;;;;;5041339;28;20092;-70
2021/12/28 11:43:07;;;;;;;11.05;4.68;;;;;;;;;;5042578;28;20028;-69
2021/12/28 11:45:33;;;;;;;14.75;4.75;;;;;;;;;;5038617;28;20146;-69
2021/12/28 11:47:59;;;;;;;12.23;4.90;;;;;;;;;;5039755;28;20274;-69
2021/12/28 11:50:25;;;;;;;9.75;4.95;;;;;;;;;;5034297;28;20037;-70
2021/12/28 11:52:52;;;;;;;10.82;5.32;;;;;;;;;;5047079;28;20069;-70
2021/12/28 11:55:19;;;;;;;9.70;5.60;;;;;;;;;;5043034;28;20045;-70
2021/12/28 11:57:51;;;;;;;16.58;7.15;;;;;;;;;;5039148;28;20564;-70
2021/12/28 12:00:19;;;;;;;18.00;7.05;;;;;;;;;;5037788;28;20029;-69
2021/12/28 12:02:49;;;;;;;18.63;7.30;;;;;;;;;;5041188;28;20032;-69
2021/12/28 12:05:28;;;;;;;12.68;7.78;;;;;;;;;;5041573;28;20125;-69
2021/12/28 12:08:15;;;;;;;15.73;8.35;;;;;;;;;;5040503;28;20501;-69
2021/12/28 12:10:42;;;;;;;16.45;8.30;;;;;;;;;;5037941;28;20030;-69
2021/12/28 12:13:14;;;;;;;10.40;7.18;;;;;;;;;;5035992;28;20128;-69
2021/12/28 12:15:42;;;;;;;10.10;5.93;;;;;;;;;;5041224;28;20128;-69
2021/12/28 12:18:12;;;;;;;12.05;4.95;;;;;;;;;;5044054;28;20062;-69
2021/12/28 12:20:39;;;;;;;8.60;4.73;;;;;;;;;;5037840;28;20167;-69
2021/12/28 12:23:13;;;;;;;10.43;3.30;;;;;;;;;;5044234;28;20290;-70
2021/12/28 12:25:42;;;;;;;13.32;3.22;;;;;;;;;;5040716;28;20037;-69
2021/12/28 12:28:08;;;;;;;13.50;2.72;;;;;;;;;;5041575;28;20029;-69
2021/12/28 12:30:34;;;;;;;16.95;3.00;;;;;;;;;;5041346;28;20118;-69
2021/12/28 12:33:07;;;;;;;18.00;2.70;;;;;;;;;;5041822;28;20067;-69
2021/12/28 12:35:43;;;;;;;17.23;3.50;;;;;;;;;;5043184;28;20025;-69
2021/12/28 12:38:15;;;;;;;8.35;2.10;;;;;;;;;;5042395;28;20025;-69
2021/12/28 12:40:58;;;;;;;13.63;2.80;;;;;;;;;;5038311;28;20029;-69
2021/12/28 12:43:25;;;;;;;19.20;3.38;;;;;;;;;;5045358;28;20052;-70
2021/12/28 12:45:52;;;;;;;16.00;3.15;;;;;;;;;;5029817;28;20116;-69
2021/12/28 12:48:31;;;;;;;21.35;3.55;;;;;;;;;;5038920;28;20032;-69
2021/12/28 12:51:24;;;;;;;30.08;4.75;;;;;;;;;;5039290;28;20271;-70
2021/12/28 12:53:53;;;;;;;25.08;4.35;;;;;;;;;;5035227;28;20037;-69
2021/12/28 12:56:21;;;;;;;24.38;3.97;;;;;;;;;;5045278;28;20040;-70
2021/12/28 12:58:48;;;;;;;27.98;3.85;;;;;;;;;;5041814;28;20022;-71
2021/12/28 13:01:36;;;;;;;27.35;4.15;;;;;;;;;;5036924;28;20087;-71
2021/12/28 13:04:03;;;;;;;37.55;5.68;;;;;;;;;;5035167;28;20041;-69
2021/12/28 13:06:41;;;;;;;39.78;5.30;;;;;;;;;;5041787;28;20060;-69
2021/12/28 13:09:07;;;;;;;46.90;6.95;;;;;;;;;;5043455;28;20544;-70
2021/12/28 13:11:34;;;;;;;31.92;5.53;;;;;;;;;;5042784;28;20029;-69
2021/12/28 13:14:00;;;;;;;37.33;5.22;;;;;;;;;;5043357;28;20033;-70
2021/12/28 13:16:27;;;;;;;50.15;6.80;;;;;;;;;;5037747;28;20037;-70
2021/12/28 13:19:06;;;;;;;42.40;6.25;;;;;;;;;;5058828;28;20025;-69
2021/12/28 13:21:32;;;;;;;49.35;6.55;;;;;;;;;;5032376;28;20083;-70
2021/12/28 13:24:08;;;;;;;45.72;6.10;;;;;;;;;;5043021;28;20063;-69
2021/12/28 13:26:57;;;;;;;48.35;7.50;;;;;;;;;;5047802;28;20068;-69
2021/12/28 13:29:24;;;;;;;58.55;7.90;;;;;;;;;;5035856;28;20033;-70
2021/12/28 13:31:50;;;;;;;54.25;7.28;;;;;;;;;;5036289;28;20060;-70
2021/12/28 13:34:16;;;;;;;45.38;6.10;;;;;;;;;;5042550;28;20043;-69
2021/12/28 13:36:54;;;;;;;45.22;6.05;;;;;;;;;;5031995;28;20056;-70
2021/12/28 13:39:20;;;;;;;47.35;7.80;;;;;;;;;;5042314;28;20037;-71
2021/12/28 13:41:52;;;;;;;47.90;8.20;;;;;;;;;;5039156;28;20029;-69
2021/12/28 13:44:18;;;;;;;37.65;5.10;;;;;;;;;;5037691;28;20037;-69
2021/12/28 13:46:45;;;;;;;42.08;6.57;;;;;;;;;;5040345;28;20078;-69
2021/12/28 13:49:14;;;;;;;41.05;6.95;;;;;;;;;;5041203;28;20111;-69
2021/12/28 13:51:41;;;;;;;41.72;5.78;;;;;;;;;;5036206;28;20031;-69
2021/12/28 13:54:07;;;;;;;32.83;5.60;;;;;;;;;;5043230;28;20039;-69
2021/12/28 13:56:36;;;;;;;43.70;6.18;;;;;;;;;;5039009;28;20037;-69
2021/12/28 13:59:04;;;;;;;28.13;4.28;;;;;;;;;;5043709;28;20700;-69
2021/12/28 14:01:38;;;;;;;27.88;3.90;;;;;;;;;;5043039;28;20104;-69
2021/12/28 14:04:06;;;;;;;32.80;4.65;;;;;;;;;;5040453;28;20029;-70
2021/12/28 14:06:33;;;;;;;28.33;5.38;;;;;;;;;;5042073;28;20034;-69
2021/12/28 14:09:03;;;;;;;39.63;5.95;;;;;;;;;;5036785;28;20032;-69
2021/12/28 14:11:40;;;;;;;47.00;7.30;;;;;;;;;;5039375;28;20036;-72
2021/12/28 14:14:21;;;;;;;45.45;6.82;;;;;;;;;;5037289;28;20375;-68
2021/12/28 14:16:47;;;;;;;;;;;;;;;;;;5041254;28;20033;-69
2021/12/28 14:19:16;;;;;;;35.13;5.80;;;;;;;;;;5037893;28;20011;-69
2021/12/28 14:21:44;;;;;;;52.58;7.82;;;;;;;;;;5039391;28;20474;-70
2021/12/28 14:24:11;;;;;;;45.90;5.90;;;;;;;;;;5040143;28;20069;-70